Time;durP1;ratioP1;P1;durP2;ratioP2;P2;SDS_P1;SDS_P2;PMS_P1;PMS_P2;Temp;Humidity;BMP_temperature;BMP_pressure;BME280_temperature;BME280_humidity;BME280_pressure;Samples;Min_cycle;Max_cycle;Signal;HPM_P1;HPM_P2
2022/09/29 00:02:11;;;;;;;5.50;5.10;;;;;;;4.59;100.00;98435.22;10541665;28;20101;-71
2022/09/29 00:07:12;;;;;;;4.93;4.53;;;;;;;4.60;100.00;98447.31;10541657;28;20040;-71
2022/09/29 00:12:14;;;;;;;6.47;5.97;;;;;;;4.59;100.00;98447.38;10541570;28;20044;-70
2022/09/29 00:17:16;;;;;;;6.25;5.43;;;;;;;4.76;100.00;98450.28;10541625;28;20097;-71
2022/09/29 00:22:18;;;;;;;5.10;4.65;;;;;;;4.73;100.00;98461.63;10523800;28;20105;-71
2022/09/29 00:27:19;;;;;;;5.25;4.85;;;;;;;4.89;100.00;98459.38;10524253;28;20089;-71
2022/09/29 00:32:21;;;;;;;5.97;5.45;;;;;;;4.77;100.00;98458.03;10540540;28;20044;-71
2022/09/29 00:37:22;;;;;;;5.60;5.15;;;;;;;4.64;100.00;98456.72;10541059;28;20054;-69
2022/09/29 00:42:24;;;;;;;6.30;5.80;;;;;;;4.51;100.00;98452.84;10541471;28;20135;-70
2022/09/29 00:47:28;;;;;;;5.97;5.53;;;;;;;4.42;100.00;98453.97;10541015;28;20397;-71
2022/09/29 00:52:36;;;;;;;5.60;5.07;;;;;;;4.21;100.00;98460.72;10540716;28;20048;-71
2022/09/29 00:57:50;;;;;;;6.50;6.00;;;;;;;4.12;100.00;98461.03;10505667;28;20048;-71
2022/09/29 01:03:03;;;;;;;5.32;4.82;;;;;;;4.26;100.00;98450.19;10540154;28;20459;-71
2022/09/29 01:08:22;;;;;;;5.55;5.03;;;;;;;4.38;100.00;98449.78;10540573;28;20078;-70
2022/09/29 01:13:24;;;;;;;5.55;5.10;;;;;;;4.51;100.00;98451.06;10547490;28;20059;-70
2022/09/29 01:18:26;;;;;;;5.28;4.78;;;;;;;4.33;100.00;98456.88;10548560;28;20036;-71
2022/09/29 01:24:05;;;;;;;5.70;5.28;;;;;;;4.21;100.00;98455.53;10530547;28;20048;-71
2022/09/29 01:29:27;;;;;;;6.30;5.75;;;;;;;4.05;100.00;98462.94;10548900;28;20481;-70
2022/09/29 01:34:44;;;;;;;6.13;5.53;;;;;;;4.17;100.00;98468.69;10549027;28;20062;-70
2022/09/29 01:40:10;;;;;;;5.43;5.03;;;;;;;4.31;100.00;98469.09;10551329;28;20040;-70
2022/09/29 01:45:26;;;;;;;5.60;5.13;;;;;;;4.27;100.00;98470.09;10551475;28;20067;-71
2022/09/29 01:50:34;;;;;;;5.85;5.45;;;;;;;4.03;100.00;98471.72;10550403;28;20046;-70
2022/09/29 01:55:43;;;;;;;5.80;5.30;;;;;;;3.86;100.00;98469.59;10531267;28;20063;-70
2022/09/29 02:00:50;;;;;;;5.07;4.68;;;;;;;3.74;100.00;98468.22;10530947;28;20079;-69
2022/09/29 02:06:00;;;;;;;5.38;4.88;;;;;;;3.69;100.00;98477.03;10547795;28;20131;-69
2022/09/29 02:11:07;;;;;;;5.80;5.32;;;;;;;3.65;100.00;98471.06;10529068;28;20047;-69
2022/09/29 02:16:12;;;;;;;5.38;4.97;;;;;;;3.68;100.00;98478.78;10545903;28;20090;-70
2022/09/29 02:21:14;;;;;;;4.95;4.55;;;;;;;3.64;100.00;98487.56;10527529;28;20048;-70
2022/09/29 02:26:17;;;;;;;5.28;4.88;;;;;;;3.63;100.00;98483.28;10543604;28;20566;-71
2022/09/29 02:31:19;;;;;;;5.35;4.95;;;;;;;3.60;100.00;98491.16;10544690;28;20052;-71
2022/09/29 02:36:33;;;;;;;5.72;4.75;;;;;;;3.95;100.00;98487.53;10544784;28;20474;-71
2022/09/29 02:42:00;;;;;;;5.75;5.25;;;;;;;4.16;100.00;98492.97;10558679;22;20040;-73
2022/09/29 02:47:13;;;;;;;6.40;5.25;;;;;;;3.90;100.00;98506.75;10547908;28;20067;-73
2022/09/29 02:52:30;;;;;;;4.90;4.47;;;;;;;3.81;100.00;98497.50;10546749;28;20530;-73
2022/09/29 02:57:47;;;;;;;5.78;5.13;;;;;;;3.96;100.00;98498.78;10527478;28;20489;-71
2022/09/29 03:02:48;;;;;;;5.35;4.85;;;;;;;4.28;100.00;98493.44;10527973;28;20036;-70
2022/09/29 03:07:50;;;;;;;5.28;4.88;;;;;;;4.45;100.00;98500.72;10528428;28;20445;-72
2022/09/29 03:12:52;;;;;;;6.07;5.57;;;;;;;4.31;100.00;98497.72;10528325;28;20053;-73
2022/09/29 03:17:56;;;;;;;4.78;4.38;;;;;;;4.36;100.00;98501.00;10544617;28;20060;-72
2022/09/29 03:22:57;;;;;;;5.90;5.50;;;;;;;4.40;100.00;98489.63;10544030;28;20098;-72
2022/09/29 03:27:59;;;;;;;5.72;5.22;;;;;;;4.45;100.00;98498.13;10527011;28;20044;-72
2022/09/29 03:33:00;;;;;;;5.95;5.45;;;;;;;4.47;100.00;98496.34;10544135;28;20048;-71
2022/09/29 03:38:02;;;;;;;5.50;5.10;;;;;;;4.49;100.00;98510.13;10524091;28;20382;-72
2022/09/29 03:43:03;;;;;;;5.75;5.25;;;;;;;4.80;100.00;98504.78;10542259;28;20079;-72
2022/09/29 03:48:05;;;;;;;5.28;4.75;;;;;;;5.01;100.00;98507.59;10523838;28;20432;-71
2022/09/29 03:53:07;;;;;;;5.05;4.65;;;;;;;4.80;100.00;98514.34;10541941;28;20048;-72
2022/09/29 03:58:08;;;;;;;5.50;5.00;;;;;;;4.84;100.00;98510.75;10542384;28;20093;-72
2022/09/29 04:03:10;;;;;;;5.15;4.75;;;;;;;4.79;100.00;98510.91;10541344;28;20052;-71
2022/09/29 04:08:13;;;;;;;4.85;4.47;;;;;;;4.84;100.00;98513.38;10522768;28;20090;-71
2022/09/29 04:13:14;;;;;;;6.00;5.40;;;;;;;4.84;100.00;98505.56;10542047;28;20103;-73
2022/09/29 04:18:20;;;;;;;5.03;4.53;;;;;;;4.83;100.00;98510.81;10523621;28;20063;-71
2022/09/29 04:23:22;;;;;;;5.60;5.20;;;;;;;4.83;100.00;98516.88;10522289;28;20135;-72
2022/09/29 04:28:24;;;;;;;5.40;4.90;;;;;;;4.87;100.00;98517.59;10540536;28;20086;-73
2022/09/29 04:33:28;;;;;;;5.93;5.43;;;;;;;5.05;100.00;98520.47;10540866;28;20089;-72
2022/09/29 04:38:30;;;;;;;7.85;7.13;;;;;;;5.04;100.00;98523.09;10522872;28;20048;-73
2022/09/29 04:43:32;;;;;;;6.53;5.93;;;;;;;5.02;100.00;98519.72;10522421;28;20044;-72
2022/09/29 04:48:34;;;;;;;6.07;5.65;;;;;;;5.10;100.00;98535.09;10546917;28;20374;-72
2022/09/29 04:53:36;;;;;;;5.50;5.00;;;;;;;5.13;100.00;98525.41;10530704;28;20412;-72
2022/09/29 04:58:38;;;;;;;5.57;5.18;;;;;;;5.15;100.00;98541.00;10548715;28;20047;-72
2022/09/29 05:03:40;;;;;;;6.25;5.78;;;;;;;5.07;100.00;98541.25;10549610;28;20568;-72
2022/09/29 05:08:42;;;;;;;11.98;10.85;;;;;;;5.09;100.00;98533.38;10548822;28;20043;-72
2022/09/29 05:13:48;;;;;;;7.80;7.20;;;;;;;5.13;100.00;98545.38;10529873;28;20090;-72
2022/09/29 05:18:50;;;;;;;6.53;5.88;;;;;;;5.36;100.00;98545.47;10529623;28;20088;-72
2022/09/29 05:23:51;;;;;;;5.25;4.90;;;;;;;5.25;100.00;98548.44;10531403;28;20127;-72
2022/09/29 05:28:53;;;;;;;8.85;5.22;;;;;;;5.14;100.00;98547.97;10531476;28;20040;-72
2022/09/29 05:33:56;;;;;;;5.05;4.65;;;;;;;5.16;100.00;98553.94;10548005;28;20040;-72
2022/09/29 05:38:57;;;;;;;6.20;5.70;;;;;;;5.33;100.00;98548.19;10529374;28;20032;-72
2022/09/29 05:44:00;;;;;;;6.93;6.43;;;;;;;5.66;100.00;98559.16;10529260;28;20509;-72
2022/09/29 05:49:02;;;;;;;6.18;5.68;;;;;;;5.98;100.00;98558.06;10548642;28;20044;-72
2022/09/29 05:54:03;;;;;;;8.43;7.72;;;;;;;5.98;100.00;98555.44;10529832;28;20044;-71
2022/09/29 05:59:05;;;;;;;5.72;5.28;;;;;;;5.94;100.00;98556.47;10530239;28;20055;-72
2022/09/29 06:04:07;;;;;;;5.95;5.45;;;;;;;5.77;100.00;98551.81;10547099;28;20125;-72
2022/09/29 06:09:09;;;;;;;6.55;6.00;;;;;;;5.75;100.00;98544.94;10545073;28;20036;-72
2022/09/29 06:14:11;;;;;;;6.00;5.50;;;;;;;5.73;100.00;98555.44;10548099;28;20398;-72
2022/09/29 06:19:12;;;;;;;5.88;5.20;;;;;;;5.76;100.00;98565.78;10527559;28;20497;-73
2022/09/29 06:24:14;;;;;;;6.10;5.50;;;;;;;5.93;100.00;98561.72;10527114;28;20115;-72
2022/09/29 06:29:16;;;;;;;5.72;5.15;;;;;;;5.93;100.00;98557.38;10545090;28;20036;-71
2022/09/29 06:34:18;;;;;;;6.32;5.70;;;;;;;6.00;100.00;98558.84;10545306;28;20106;-73
2022/09/29 06:39:20;;;;;;;8.05;7.25;;;;;;;6.27;100.00;98559.56;10545483;28;20044;-73
2022/09/29 06:44:25;;;;;;;12.55;7.32;;;;;;;7.01;100.00;98547.09;10527961;28;20047;-73
2022/09/29 06:49:26;;;;;;;6.50;5.90;;;;;;;7.43;100.00;98561.88;10525872;28;20497;-72
2022/09/29 06:54:29;;;;;;;5.22;4.72;;;;;;;7.65;99.80;98558.34;10527301;28;20051;-72
2022/09/29 06:59:31;;;;;;;5.60;5.10;;;;;;;7.50;100.00;98558.09;10528123;28;20378;-73
2022/09/29 07:04:33;;;;;;;5.80;5.30;;;;;;;7.52;100.00;98556.25;10544673;28;20127;-73
2022/09/29 07:09:34;;;;;;;10.20;6.45;;;;;;;7.52;100.00;98555.41;10542932;28;20086;-72
2022/09/29 07:14:36;;;;;;;7.32;6.72;;;;;;;7.48;100.00;98566.91;10544656;28;20101;-71
2022/09/29 07:19:38;;;;;;;8.23;7.38;;;;;;;7.64;100.00;98556.66;10546604;28;20401;-72
2022/09/29 07:24:42;;;;;;;7.15;6.55;;;;;;;7.97;100.00;98551.69;10525993;28;20115;-72
2022/09/29 07:29:43;;;;;;;7.40;6.70;;;;;;;8.22;98.83;98557.50;10543738;28;20040;-73
2022/09/29 07:34:56;;;;;;;6.93;6.28;;;;;;;8.65;98.60;98563.41;10544542;28;20055;-72
2022/09/29 07:39:58;;;;;;;6.57;5.97;;;;;;;8.78;95.61;98568.91;10543020;28;20044;-73
2022/09/29 07:45:00;;;;;;;10.70;5.97;;;;;;;9.22;92.66;98571.16;10544425;28;20100;-72
2022/09/29 07:50:02;;;;;;;6.13;5.60;;;;;;;9.01;94.05;98581.75;10525763;28;20043;-72
2022/09/29 07:55:04;;;;;;;7.28;6.68;;;;;;;9.05;94.33;98578.06;10542120;28;20043;-72
2022/09/29 08:00:06;;;;;;;7.90;6.90;;;;;;;9.13;93.89;98582.94;10542168;28;20090;-72
2022/09/29 08:05:12;;;;;;;7.10;6.55;;;;;;;9.41;93.77;98585.03;10541873;28;20047;-72
2022/09/29 08:10:13;;;;;;;6.75;6.25;;;;;;;9.98;91.29;98601.34;10541021;28;20036;-72
2022/09/29 08:15:19;;;;;;;7.82;7.13;;;;;;;9.91;90.97;98599.97;10541137;28;20497;-71
2022/09/29 08:20:22;;;;;;;8.48;7.60;;;;;;;10.00;88.88;98602.09;10541055;28;20465;-72
2022/09/29 08:25:24;;;;;;;7.82;7.15;;;;;;;10.21;87.87;98594.03;10539964;28;20052;-71
2022/09/29 08:30:26;;;;;;;8.25;7.22;;;;;;;10.34;84.37;98592.50;10540620;28;20086;-71
2022/09/29 08:35:28;;;;;;;9.38;6.82;;;;;;;10.42;84.72;98606.06;10539139;28;20047;-71
2022/09/29 08:40:30;;;;;;;7.10;6.60;;;;;;;10.42;84.32;98600.81;10541447;28;20435;-72
2022/09/29 08:45:38;;;;;;;6.75;6.15;;;;;;;10.48;83.53;98603.09;10540880;28;20036;-72
2022/09/29 08:50:52;;;;;;;7.00;6.50;;;;;;;10.44;84.91;98604.19;10539671;28;20487;-70
2022/09/29 08:55:59;;;;;;;7.03;6.35;;;;;;;10.98;81.36;98611.75;10541289;28;20109;-70
2022/09/29 09:01:37;;;;;;;6.20;5.60;;;;;;;11.17;76.94;98617.69;10532857;28;20054;-70
2022/09/29 09:06:55;;;;;;;5.80;5.25;;;;;;;11.55;77.81;98627.78;10329947;28;20149;-70
2022/09/29 09:12:26;;;;;;;6.88;6.20;;;;;;;11.15;79.83;98624.78;10329227;28;20145;-70
2022/09/29 09:18:08;;;;;;;5.40;5.00;;;;;;;10.96;80.52;98627.63;10328629;28;20096;-70
2022/09/29 09:23:20;;;;;;;3.75;3.42;;;;;;;11.18;76.91;98623.78;10329936;28;20084;-70
2022/09/29 09:28:40;;;;;;;3.97;3.78;;;;;;;11.32;76.07;98610.69;10329260;28;20109;-70
2022/09/29 09:34:04;;;;;;;2.53;2.00;;;;;;;12.17;71.17;98617.13;10333411;28;20055;-70
2022/09/29 09:39:13;;;;;;;2.50;2.20;;;;;;;12.51;69.02;98615.91;10336720;28;20046;-70
2022/09/29 09:44:19;;;;;;;2.83;2.40;;;;;;;13.17;64.68;98622.25;10504487;28;20051;-71
2022/09/29 09:49:30;;;;;;;2.22;1.75;;;;;;;13.08;63.80;98626.34;10505476;28;20048;-70
2022/09/29 09:54:35;;;;;;;1.63;1.52;;;;;;;12.95;63.56;98623.63;10505553;28;20505;-70
2022/09/29 10:00:02;;;;;;;1.60;1.40;;;;;;;13.11;65.28;98637.53;10504314;28;20086;-71
2022/09/29 10:05:16;;;;;;;1.60;1.50;;;;;;;13.33;63.04;98633.56;10504875;28;20167;-70
2022/09/29 10:10:27;;;;;;;3.40;2.13;;;;;;;13.49;63.41;98628.94;10503801;28;20043;-70
2022/09/29 10:15:49;;;;;;;1.60;1.10;;;;;;;14.51;59.23;98630.84;10513870;28;20459;-71
2022/09/29 10:20:51;;;;;;;1.50;1.30;;;;;;;15.05;55.35;98630.50;10537173;28;20055;-70
2022/09/29 10:26:16;;;;;;;2.63;1.30;;;;;;;14.95;59.54;98629.50;10526407;28;20051;-70
2022/09/29 10:31:22;;;;;;;2.38;1.70;;;;;;;15.58;58.29;98634.53;10544056;28;20464;-70
2022/09/29 10:36:47;;;;;;;2.00;1.70;;;;;;;15.84;57.65;98639.69;10545122;28;20465;-70
2022/09/29 10:41:53;;;;;;;1.83;0.90;;;;;;;16.58;50.60;98633.06;10527492;28;20452;-70
2022/09/29 10:46:57;;;;;;;1.30;1.20;;;;;;;16.28;52.89;98646.06;10543089;28;20516;-71
2022/09/29 10:52:05;;;;;;;0.77;0.70;;;;;;;15.91;54.75;98638.28;10543935;28;20044;-70
2022/09/29 10:57:14;;;;;;;1.25;1.15;;;;;;;16.02;51.95;98643.59;10543131;28;20048;-71
2022/09/29 11:02:31;;;;;;;2.03;1.17;;;;;;;15.04;56.22;98645.56;10543657;28;20131;-70
2022/09/29 11:07:42;;;;;;;1.00;0.77;;;;;;;15.97;55.04;98643.09;10542381;28;20036;-71
2022/09/29 11:12:44;;;;;;;3.20;1.55;;;;;;;15.39;55.14;98652.72;10543262;28;20059;-71
2022/09/29 11:17:50;;;;;;;1.15;1.05;;;;;;;15.01;55.72;98656.38;10542355;28;20483;-70
2022/09/29 11:23:25;;;;;;;0.90;0.90;;;;;;;14.97;55.87;98652.25;10543150;28;20040;-70
2022/09/29 11:28:32;;;;;;;1.08;0.93;;;;;;;15.10;54.50;98655.72;10518898;28;20090;-70
2022/09/29 11:33:37;;;;;;;1.13;0.90;;;;;;;14.90;55.67;98661.56;10507454;28;20101;-70
2022/09/29 11:39:00;;;;;;;1.42;0.77;;;;;;;14.38;56.20;98658.09;10523392;28;20044;-71
2022/09/29 11:44:21;;;;;;;2.55;1.00;;;;;;;13.63;56.71;98665.84;10523842;28;20135;-70
2022/09/29 11:49:41;;;;;;;1.20;0.88;;;;;;;13.85;57.08;98662.59;10541232;28;20114;-70
2022/09/29 11:55:05;;;;;;;0.73;0.70;;;;;;;13.91;57.67;98661.38;10523147;28;20101;-70
2022/09/29 12:00:21;;;;;;;1.40;0.60;;;;;;;14.43;57.44;98664.88;10541059;28;20054;-71
2022/09/29 12:05:34;;;;;;;2.05;1.10;;;;;;;14.39;54.50;98667.75;10524303;28;20068;-71
2022/09/29 12:10:42;;;;;;;0.73;0.70;;;;;;;14.71;55.30;98672.63;10541015;28;20044;-71
2022/09/29 12:15:55;;;;;;;1.75;0.70;;;;;;;14.57;55.31;98673.59;10541789;28;20040;-72
2022/09/29 12:20:59;;;;;;;1.10;0.80;;;;;;;14.62;52.94;98668.81;10541386;28;20033;-71
2022/09/29 12:26:12;;;;;;;0.80;0.70;;;;;;;14.71;53.10;98677.06;10542166;28;20059;-71
2022/09/29 12:31:22;;;;;;;1.73;1.02;;;;;;;14.33;55.04;98670.81;10542253;28;20040;-71
2022/09/29 12:36:45;;;;;;;1.23;0.77;;;;;;;13.93;56.30;98667.38;10541083;28;20122;-72
2022/09/29 12:42:02;;;;;;;1.00;0.73;;;;;;;14.22;56.06;98677.78;10540372;28;20060;-71
2022/09/29 12:47:22;;;;;;;1.80;0.82;;;;;;;14.23;58.86;98674.19;10541604;28;20064;-71
2022/09/29 12:52:32;;;;;;;2.88;1.00;;;;;;;13.97;56.34;98674.16;10541332;28;20104;-71
2022/09/29 12:57:41;;;;;;;1.42;0.85;;;;;;;14.17;56.47;98671.97;10540022;28;20123;-71
2022/09/29 13:03:21;;;;;;;1.27;0.80;;;;;;;13.82;56.48;98680.47;10540091;28;20044;-70
2022/09/29 13:08:31;;;;;;;2.88;1.00;;;;;;;14.37;52.90;98684.66;10541950;28;20154;-71
2022/09/29 13:14:02;;;;;;;1.48;0.90;;;;;;;14.04;56.51;98683.38;10548549;28;20076;-71
2022/09/29 13:19:21;;;;;;;3.92;1.40;;;;;;;14.19;56.30;98689.41;10548119;28;20082;-71
2022/09/29 13:25:03;;;;;;;1.27;0.77;;;;;;;14.06;56.42;98686.75;10548386;28;20048;-71
2022/09/29 13:30:11;;;;;;;2.25;0.65;;;;;;;14.20;54.30;98687.59;10528744;28;20040;-74
2022/09/29 13:35:23;;;;;;;1.50;0.80;;;;;;;14.27;54.83;98692.38;10528680;28;20517;-71
2022/09/29 13:40:28;;;;;;;2.05;1.02;;;;;;;14.13;56.44;98695.13;10529294;28;20044;-71
2022/09/29 13:45:35;;;;;;;1.30;1.00;;;;;;;14.02;56.46;98693.19;10546799;28;20052;-71
2022/09/29 13:50:55;;;;;;;1.52;0.98;;;;;;;14.12;55.97;98693.41;10529049;28;20074;-71
2022/09/29 13:56:02;;;;;;;1.88;1.15;;;;;;;14.09;56.87;98698.91;10547736;28;20044;-71
2022/09/29 14:01:06;;;;;;;2.13;0.93;;;;;;;14.09;56.73;98689.19;10547135;28;20054;-71
2022/09/29 14:06:24;;;;;;;1.15;0.90;;;;;;;14.40;53.68;98681.81;10547871;28;20099;-71
2022/09/29 14:11:48;;;;;;;1.67;1.10;;;;;;;14.22;54.70;98688.38;10546692;28;20400;-70
2022/09/29 14:16:54;;;;;;;3.10;1.35;;;;;;;13.94;55.08;98678.78;10527598;28;20085;-70
2022/09/29 14:21:57;;;;;;;2.00;1.00;;;;;;;13.96;55.75;98683.03;10527994;28;20036;-70
2022/09/29 14:27:22;;;;;;;2.53;1.20;;;;;;;13.81;56.31;98677.00;10528243;28;20044;-70
2022/09/29 14:32:40;;;;;;;1.95;0.80;;;;;;;13.86;55.02;98669.59;10527595;28;20044;-70
2022/09/29 14:37:44;;;;;;;2.33;1.42;;;;;;;13.76;54.52;98684.34;10545718;28;20051;-70
2022/09/29 14:42:46;;;;;;;1.35;1.10;;;;;;;13.49;55.86;98694.09;10563383;22;20047;-69
2022/09/29 14:53:24;;;;;;;1.33;0.88;;;;;;;13.34;57.20;98709.13;10585798;28;20447;-68
2022/09/29 14:58:45;;;;;;;1.30;0.85;;;;;;;13.26;60.21;98724.59;10585647;28;20038;-68
2022/09/29 15:03:51;;;;;;;1.23;0.90;;;;;;;13.09;62.07;98721.19;10586522;28;20043;-68
2022/09/29 15:08:58;;;;;;;2.10;1.10;;;;;;;13.10;60.07;98714.13;10585064;28;20519;-68
2022/09/29 15:14:00;;;;;;;1.27;0.90;;;;;;;13.46;56.57;98713.63;10566749;28;20063;-68
2022/09/29 15:19:10;;;;;;;0.93;0.73;;;;;;;13.44;56.41;98725.22;10566600;28;20040;-68
2022/09/29 15:24:27;;;;;;;1.50;0.90;;;;;;;13.11;57.71;98729.88;10584116;28;20043;-68
2022/09/29 15:29:29;;;;;;;1.13;1.02;;;;;;;12.95;58.93;98738.84;10584307;28;20059;-69
2022/09/29 15:34:31;;;;;;;1.33;1.00;;;;;;;12.86;60.22;98745.53;10583492;28;20466;-69
2022/09/29 15:39:33;;;;;;;2.83;1.10;;;;;;;12.73;61.67;98750.72;10583086;28;20086;-68
2022/09/29 15:44:34;;;;;;;1.52;1.27;;;;;;;12.65;63.28;98760.88;10565591;28;20043;-69
2022/09/29 15:49:47;;;;;;;3.25;1.70;;;;;;;12.67;65.88;98769.53;10582628;28;20061;-68
2022/09/29 15:54:55;;;;;;;2.60;1.70;;;;;;;12.77;66.30;98775.94;10583263;28;20426;-69
2022/09/29 15:59:56;;;;;;;2.90;1.60;;;;;;;12.61;66.56;98777.81;10584172;28;20496;-68
2022/09/29 16:05:03;;;;;;;2.25;1.85;;;;;;;12.68;66.69;98788.84;10582980;28;20044;-68
2022/09/29 16:10:12;;;;;;;;;;;;;;;12.39;68.45;98796.69;10583250;28;20031;-68
2022/09/29 16:15:35;;;;;;;2.03;1.83;;;;;;;12.31;69.63;98802.44;10582662;28;19919;-70
2022/09/29 16:20:42;;;;;;;1.80;1.67;;;;;;;12.14;70.85;98813.09;10584152;28;20465;-68
2022/09/29 16:25:43;;;;;;;3.15;2.08;;;;;;;12.10;72.17;98820.31;10582855;28;20447;-69
2022/09/29 16:31:00;;;;;;;3.03;2.22;;;;;;;12.00;73.43;98832.31;10582136;28;20050;-68
2022/09/29 16:36:07;;;;;;;2.63;2.42;;;;;;;11.88;74.37;98843.53;10582146;28;20077;-69
2022/09/29 16:41:19;;;;;;;3.05;2.75;;;;;;;11.62;76.05;98851.06;10580205;28;20051;-69
2022/09/29 16:46:22;;;;;;;3.67;3.25;;;;;;;11.47;77.83;98857.16;10561535;28;20048;-70
2022/09/29 16:51:25;;;;;;;4.30;3.28;;;;;;;11.29;78.93;98852.91;10557431;28;20039;-71
2022/09/29 16:56:40;;;;;;;3.67;3.30;;;;;;;11.16;80.04;98855.34;10582859;28;20082;-71
2022/09/29 17:01:45;;;;;;;3.92;3.47;;;;;;;11.18;80.51;98860.50;10521660;28;20071;-71
2022/09/29 17:06:47;;;;;;;4.00;3.60;;;;;;;11.22;81.59;98859.41;10539305;28;20048;-70
2022/09/29 17:11:48;;;;;;;4.45;3.85;;;;;;;11.03;82.95;98870.06;10539483;28;20067;-71
2022/09/29 17:16:51;;;;;;;6.28;4.07;;;;;;;10.87;84.87;98880.50;10554312;28;20040;-70
2022/09/29 17:21:54;;;;;;;5.15;4.65;;;;;;;10.57;86.56;98883.75;10547016;28;20044;-70
2022/09/29 17:32:16;;;;;;;6.60;4.50;;;;;;;10.25;88.94;98890.59;10582274;28;20039;-71
2022/09/29 17:37:18;;;;;;;5.35;4.70;;;;;;;10.18;89.33;98896.19;10582023;28;20431;-70
2022/09/29 17:42:25;;;;;;;6.45;5.85;;;;;;;10.09;90.48;98898.34;10581329;28;20044;-70
2022/09/29 17:47:27;;;;;;;6.18;5.70;;;;;;;10.19;90.57;98901.38;10581284;28;20089;-71
2022/09/29 17:52:33;;;;;;;6.38;5.80;;;;;;;10.42;92.10;98897.66;10581109;28;20043;-70
2022/09/29 17:57:34;;;;;;;6.03;5.22;;;;;;;10.33;91.53;98900.72;10589122;28;20067;-70
2022/09/29 18:02:36;;;;;;;7.40;5.45;;;;;;;10.11;93.48;98900.88;10588287;28;20048;-71
2022/09/29 18:07:38;;;;;;;6.40;5.90;;;;;;;10.22;94.35;98908.25;10587760;28;20078;-71
2022/09/29 18:12:39;;;;;;;6.80;6.20;;;;;;;10.11;94.66;98904.34;10588562;28;20078;-71
2022/09/29 18:17:43;;;;;;;5.80;5.30;;;;;;;10.03;95.56;98903.88;10587262;28;20050;-70
2022/09/29 18:22:47;;;;;;;6.70;6.10;;;;;;;10.14;95.39;98910.38;10588121;28;20071;-70
2022/09/29 18:27:49;;;;;;;7.88;7.15;;;;;;;10.19;94.90;98905.78;10587494;28;20047;-71
2022/09/29 18:32:57;;;;;;;7.18;6.68;;;;;;;10.17;95.31;98905.00;10586593;28;20050;-71
2022/09/29 18:38:00;;;;;;;7.40;6.75;;;;;;;10.09;96.15;98903.59;10569054;28;20044;-71
2022/09/29 18:43:02;;;;;;;7.78;7.18;;;;;;;10.08;95.99;98908.91;10586434;28;20073;-71
2022/09/29 18:48:05;;;;;;;7.57;7.00;;;;;;;10.47;95.21;98906.16;10568089;28;20048;-71
2022/09/29 18:53:12;;;;;;;9.80;8.73;;;;;;;10.31;95.48;98918.31;10586033;28;20089;-71
2022/09/29 18:58:19;;;;;;;8.70;7.80;;;;;;;10.68;93.68;98916.53;10585411;28;20044;-71
2022/09/29 19:03:22;;;;;;;7.35;6.70;;;;;;;10.41;94.17;98918.75;10585937;28;20039;-72
2022/09/29 19:08:24;;;;;;;6.95;6.32;;;;;;;10.35;95.53;98923.34;10584372;28;20035;-71
2022/09/29 19:13:27;;;;;;;8.30;7.50;;;;;;;10.34;96.03;98940.06;10585106;28;20492;-71
2022/09/29 19:18:28;;;;;;;6.90;6.30;;;;;;;10.33;95.27;98943.59;10584909;28;20047;-71
2022/09/29 19:23:30;;;;;;;7.38;6.88;;;;;;;10.43;95.71;98941.38;10586200;28;20105;-71
2022/09/29 19:28:32;;;;;;;7.35;6.75;;;;;;;10.49;95.94;98956.00;10585908;28;20050;-71
2022/09/29 19:33:34;;;;;;;8.73;7.97;;;;;;;10.17;97.17;98954.88;10567165;28;20044;-71
2022/09/29 19:38:37;;;;;;;8.27;7.47;;;;;;;10.11;97.55;98964.75;10567744;28;20511;-71
2022/09/29 19:43:39;;;;;;;7.50;6.80;;;;;;;10.10;97.85;98977.97;10566299;28;20043;-71
2022/09/29 19:48:42;;;;;;;8.80;8.10;;;;;;;10.01;98.06;98974.00;10584528;28;20048;-71
2022/09/29 19:53:44;;;;;;;9.77;8.88;;;;;;;10.29;98.34;98977.97;10566258;28;20118;-71
2022/09/29 19:58:50;;;;;;;9.30;8.53;;;;;;;10.25;97.71;98976.41;10584664;28;20047;-71
2022/09/29 20:03:51;;;;;;;10.05;9.35;;;;;;;10.02;98.02;98988.81;10548769;28;20436;-70
2022/09/29 20:08:53;;;;;;;9.90;8.43;;;;;;;9.98;97.94;98987.25;10584000;28;20040;-72
2022/09/29 20:13:55;;;;;;;10.00;9.20;;;;;;;9.82;98.73;98991.50;10583356;28;20100;-71
2022/09/29 20:18:57;;;;;;;11.07;10.18;;;;;;;9.79;99.02;99004.78;10583494;28;20044;-71
2022/09/29 20:24:00;;;;;;;10.95;10.05;;;;;;;9.81;98.59;99000.28;10583203;28;20051;-71
2022/09/29 20:29:02;;;;;;;11.77;10.88;;;;;;;9.93;98.32;99005.00;10583667;28;20043;-70
2022/09/29 20:39:48;;;;;;;10.57;9.65;;;;;;;9.77;98.91;99028.44;10254923;29;20051;-72
2022/09/29 20:44:54;;;;;;;10.45;9.65;;;;;;;9.43;100.00;99034.34;10257317;29;20051;-72
2022/09/29 20:49:56;;;;;;;10.07;9.13;;;;;;;9.21;100.00;99030.88;10257160;29;20039;-72
2022/09/29 20:55:01;;;;;;;10.40;9.60;;;;;;;9.11;100.00;99030.44;10257463;29;20505;-71
2022/09/29 21:00:03;;;;;;;10.93;10.05;;;;;;;9.01;100.00;99040.44;10255782;29;20048;-71
2022/09/29 21:05:05;;;;;;;11.38;10.50;;;;;;;9.33;100.00;99035.63;10255842;29;20058;-72
2022/09/29 21:10:08;;;;;;;11.27;10.25;;;;;;;9.24;100.00;99054.38;10257095;29;20477;-72
2022/09/29 21:15:10;;;;;;;9.80;9.02;;;;;;;9.13;100.00;99064.47;10344976;23;20437;-74
2022/09/29 21:20:12;;;;;;;9.48;8.77;;;;;;;8.92;100.00;99064.41;10417327;28;20041;-74
2022/09/29 21:25:13;;;;;;;10.57;9.57;;;;;;;8.65;100.00;99068.16;10416714;28;20095;-73
2022/09/29 21:30:15;;;;;;;10.18;9.32;;;;;;;8.78;100.00;99074.59;10421812;28;20037;-74
2022/09/29 21:35:16;;;;;;;9.93;9.00;;;;;;;8.84;100.00;99085.69;10425366;28;20052;-74
2022/09/29 21:40:18;;;;;;;8.75;8.07;;;;;;;8.58;100.00;99086.69;10407117;28;20073;-74
2022/09/29 21:45:19;;;;;;;11.15;10.30;;;;;;;8.22;100.00;99083.69;10405179;28;20053;-74
2022/09/29 21:50:21;;;;;;;11.02;9.93;;;;;;;8.04;100.00;99087.84;10422551;28;20446;-73
2022/09/29 21:55:23;;;;;;;11.27;10.40;;;;;;;8.39;100.00;99080.47;10423080;28;20084;-73
2022/09/29 22:00:24;;;;;;;10.40;9.65;;;;;;;8.29;100.00;99072.09;10422431;28;20037;-73
2022/09/29 22:05:26;;;;;;;10.77;9.85;;;;;;;8.41;100.00;99089.16;10421885;28;20457;-73
2022/09/29 22:10:27;;;;;;;9.80;8.95;;;;;;;8.15;100.00;99094.47;10421322;28;20049;-73
2022/09/29 22:15:31;;;;;;;9.45;8.70;;;;;;;8.09;100.00;99090.28;10421235;28;20081;-73
2022/09/29 22:20:37;;;;;;;10.38;9.30;;;;;;;8.21;100.00;99102.09;10420969;28;20407;-73
2022/09/29 22:25:44;;;;;;;8.18;7.47;;;;;;;8.54;100.00;99100.84;10422569;28;20079;-73
2022/09/29 22:30:45;;;;;;;8.68;7.47;;;;;;;8.31;100.00;99104.28;10422134;28;20046;-73
2022/09/29 22:35:54;;;;;;;9.98;8.27;;;;;;;8.03;100.00;99104.47;10420875;28;20045;-73
2022/09/29 22:40:56;;;;;;;10.82;8.02;;;;;;;8.14;100.00;99104.06;10419535;28;20041;-73
2022/09/29 22:45:58;;;;;;;8.43;7.82;;;;;;;8.18;100.00;99110.88;10402305;28;20053;-73
2022/09/29 22:50:59;;;;;;;8.68;7.80;;;;;;;8.25;100.00;99116.78;10419940;28;20045;-73
2022/09/29 22:56:09;;;;;;;8.40;7.70;;;;;;;8.35;100.00;99111.13;10420458;28;20427;-73
2022/09/29 23:01:14;;;;;;;7.00;6.50;;;;;;;8.51;100.00;99114.06;10420886;28;20069;-73
2022/09/29 23:06:15;;;;;;;8.90;8.00;;;;;;;8.39;100.00;99113.66;10420242;28;20041;-73
2022/09/29 23:11:18;;;;;;;8.30;7.60;;;;;;;8.24;100.00;99123.78;10419849;28;20064;-73
2022/09/29 23:16:20;;;;;;;8.88;8.18;;;;;;;8.12;100.00;99118.13;10420424;28;20068;-73
2022/09/29 23:21:22;;;;;;;7.78;7.18;;;;;;;8.12;100.00;99129.44;10419364;28;20128;-73
2022/09/29 23:26:25;;;;;;;8.70;7.90;;;;;;;8.44;100.00;99130.91;10401096;28;20072;-74
2022/09/29 23:31:27;;;;;;;7.80;7.07;;;;;;;8.39;100.00;99132.00;10401562;28;20052;-74
2022/09/29 23:36:30;;;;;;;7.95;7.35;;;;;;;8.22;100.00;99132.56;10417922;28;20502;-74
2022/09/29 23:41:32;;;;;;;8.82;8.13;;;;;;;8.35;100.00;99125.97;10400855;28;20546;-74
2022/09/29 23:46:37;;;;;;;8.10;7.45;;;;;;;8.26;100.00;99127.16;10418423;28;20487;-74
2022/09/29 23:51:54;;;;;;;9.07;8.38;;;;;;;8.20;100.00;99127.41;10417160;28;20450;-74
2022/09/29 23:56:56;;;;;;;9.75;8.95;;;;;;;8.15;100.00;99125.88;10417309;28;20049;-74
